sensor_id;sensor_type;location;lat;lon;timestamp;P1;durP1;ratioP1;P2;durP2;ratioP2
15516;SDS011;7860;52.030;5.572;2023-08-07T00:04:09;7.99;;;1.90;;
15516;SDS011;7860;52.030;5.572;2023-08-07T00:04:09;6.76;;;2.06;;
15516;SDS011;7860;52.030;5.572;2023-08-07T00:04:09;8.45;;;2.12;;
15516;SDS011;7860;52.030;5.572;2023-08-07T00:04:09;8.17;;;2.09;;
15516;SDS011;7860;52.030;5.572;2023-08-07T00:04:34;7.69;;;2.13;;
15516;SDS011;7860;52.030;5.572;2023-08-07T00:05:34;7.89;;;1.97;;
15516;SDS011;7860;52.030;5.572;2023-08-07T00:06:34;8.78;;;2.18;;
15516;SDS011;7860;52.030;5.572;2023-08-07T00:07:35;9.30;;;2.14;;
15516;SDS011;7860;52.030;5.572;2023-08-07T00:08:35;8.69;;;2.11;;
15516;SDS011;7860;52.030;5.572;2023-08-07T00:09:36;9.77;;;2.28;;
15516;SDS011;7860;52.030;5.572;2023-08-07T00:10:36;10.32;;;2.31;;
15516;SDS011;7860;52.030;5.572;2023-08-07T00:11:36;9.19;;;2.24;;
15516;SDS011;7860;52.030;5.572;2023-08-07T00:12:36;8.95;;;2.23;;
15516;SDS011;7860;52.030;5.572;2023-08-07T00:13:36;13.40;;;2.63;;
15516;SDS011;7860;52.030;5.572;2023-08-07T00:14:36;9.63;;;2.14;;
15516;SDS011;7860;52.030;5.572;2023-08-07T00:15:37;9.52;;;2.26;;
15516;SDS011;7860;52.030;5.572;2023-08-07T00:16:37;11.18;;;2.26;;
15516;SDS011;7860;52.030;5.572;2023-08-07T00:17:37;11.26;;;2.57;;
15516;SDS011;7860;52.030;5.572;2023-08-07T00:18:37;15.34;;;3.08;;
15516;SDS011;7860;52.030;5.572;2023-08-07T00:19:37;11.37;;;3.00;;
15516;SDS011;7860;52.030;5.572;2023-08-07T00:20:37;11.12;;;2.52;;
15516;SDS011;7860;52.030;5.572;2023-08-07T00:21:38;7.99;;;2.26;;
15516;SDS011;7860;52.030;5.572;2023-08-07T00:22:38;10.41;;;2.49;;
15516;SDS011;7860;52.030;5.572;2023-08-07T00:23:38;9.89;;;2.70;;
15516;SDS011;7860;52.030;5.572;2023-08-07T00:24:38;10.18;;;2.64;;
15516;SDS011;7860;52.030;5.572;2023-08-07T00:25:38;10.67;;;2.41;;
15516;SDS011;7860;52.030;5.572;2023-08-07T00:26:39;10.88;;;2.45;;
15516;SDS011;7860;52.030;5.572;2023-08-07T00:27:39;10.62;;;2.71;;
15516;SDS011;7860;52.030;5.572;2023-08-07T00:28:39;10.78;;;2.35;;
15516;SDS011;7860;52.030;5.572;2023-08-07T00:29:39;10.80;;;2.73;;
15516;SDS011;7860;52.030;5.572;2023-08-07T00:30:39;11.93;;;3.09;;
15516;SDS011;7860;52.030;5.572;2023-08-07T00:31:40;10.66;;;2.50;;
15516;SDS011;7860;52.030;5.572;2023-08-07T00:32:40;11.30;;;2.75;;
15516;SDS011;7860;52.030;5.572;2023-08-07T00:33:40;13.23;;;2.58;;
15516;SDS011;7860;52.030;5.572;2023-08-07T00:34:41;10.91;;;2.66;;
15516;SDS011;7860;52.030;5.572;2023-08-07T00:35:41;10.73;;;2.83;;
15516;SDS011;7860;52.030;5.572;2023-08-07T00:36:41;11.31;;;2.81;;
15516;SDS011;7860;52.030;5.572;2023-08-07T00:37:41;12.03;;;3.11;;
15516;SDS011;7860;52.030;5.572;2023-08-07T00:38:41;9.65;;;2.56;;
15516;SDS011;7860;52.030;5.572;2023-08-07T00:39:41;10.66;;;2.77;;
15516;SDS011;7860;52.030;5.572;2023-08-07T00:40:41;13.72;;;2.84;;
15516;SDS011;7860;52.030;5.572;2023-08-07T00:41:42;15.41;;;2.80;;
15516;SDS011;7860;52.030;5.572;2023-08-07T00:42:42;10.09;;;2.64;;
15516;SDS011;7860;52.030;5.572;2023-08-07T00:43:42;11.59;;;3.51;;
15516;SDS011;7860;52.030;5.572;2023-08-07T00:44:42;13.54;;;2.70;;
15516;SDS011;7860;52.030;5.572;2023-08-07T00:45:43;16.65;;;3.45;;
15516;SDS011;7860;52.030;5.572;2023-08-07T00:46:43;15.06;;;3.29;;
15516;SDS011;7860;52.030;5.572;2023-08-07T00:47:43;11.20;;;2.95;;
15516;SDS011;7860;52.030;5.572;2023-08-07T00:48:43;11.38;;;2.71;;
15516;SDS011;7860;52.030;5.572;2023-08-07T00:49:43;15.64;;;3.43;;
15516;SDS011;7860;52.030;5.572;2023-08-07T00:50:43;13.33;;;3.02;;
15516;SDS011;7860;52.030;5.572;2023-08-07T00:51:43;11.62;;;3.16;;
15516;SDS011;7860;52.030;5.572;2023-08-07T00:52:43;9.80;;;3.10;;
15516;SDS011;7860;52.030;5.572;2023-08-07T00:53:43;13.65;;;2.97;;
15516;SDS011;7860;52.030;5.572;2023-08-07T00:54:43;12.13;;;3.03;;
15516;SDS011;7860;52.030;5.572;2023-08-07T00:55:44;14.74;;;3.14;;
15516;SDS011;7860;52.030;5.572;2023-08-07T00:56:44;14.81;;;3.09;;
15516;SDS011;7860;52.030;5.572;2023-08-07T00:57:44;13.23;;;3.03;;
15516;SDS011;7860;52.030;5.572;2023-08-07T00:58:44;12.32;;;2.72;;
15516;SDS011;7860;52.030;5.572;2023-08-07T00:59:44;12.69;;;2.68;;
15516;SDS011;7860;52.030;5.572;2023-08-07T01:00:45;12.03;;;2.72;;
15516;SDS011;7860;52.030;5.572;2023-08-07T01:01:45;9.69;;;2.83;;
15516;SDS011;7860;52.030;5.572;2023-08-07T01:02:45;8.85;;;2.58;;
15516;SDS011;7860;52.030;5.572;2023-08-07T01:03:45;11.61;;;2.71;;
15516;SDS011;7860;52.030;5.572;2023-08-07T01:04:45;12.00;;;3.11;;
15516;SDS011;7860;52.030;5.572;2023-08-07T01:05:45;13.96;;;2.69;;
15516;SDS011;7860;52.030;5.572;2023-08-07T01:06:45;11.07;;;2.80;;
15516;SDS011;7860;52.030;5.572;2023-08-07T01:07:46;12.15;;;2.71;;
15516;SDS011;7860;52.030;5.572;2023-08-07T01:08:46;10.69;;;2.96;;
15516;SDS011;7860;52.030;5.572;2023-08-07T01:09:46;12.27;;;2.72;;
15516;SDS011;7860;52.030;5.572;2023-08-07T01:10:50;9.24;;;2.86;;
15516;SDS011;7860;52.030;5.572;2023-08-07T01:11:48;8.51;;;2.47;;
15516;SDS011;7860;52.030;5.572;2023-08-07T01:12:48;10.03;;;2.56;;
15516;SDS011;7860;52.030;5.572;2023-08-07T01:13:50;8.74;;;2.30;;
15516;SDS011;7860;52.030;5.572;2023-08-07T01:14:49;8.85;;;2.35;;
15516;SDS011;7860;52.030;5.572;2023-08-07T01:15:47;9.73;;;2.45;;
15516;SDS011;7860;52.030;5.572;2023-08-07T01:16:48;9.54;;;2.53;;
15516;SDS011;7860;52.030;5.572;2023-08-07T01:17:48;9.08;;;2.41;;
15516;SDS011;7860;52.030;5.572;2023-08-07T01:18:48;8.75;;;2.45;;
15516;SDS011;7860;52.030;5.572;2023-08-07T01:19:48;11.05;;;2.64;;
15516;SDS011;7860;52.030;5.572;2023-08-07T01:20:48;8.15;;;2.31;;
15516;SDS011;7860;52.030;5.572;2023-08-07T01:21:48;10.05;;;2.44;;
15516;SDS011;7860;52.030;5.572;2023-08-07T01:22:48;10.09;;;2.85;;
15516;SDS011;7860;52.030;5.572;2023-08-07T01:23:48;8.12;;;2.45;;
15516;SDS011;7860;52.030;5.572;2023-08-07T01:24:49;10.16;;;2.71;;
15516;SDS011;7860;52.030;5.572;2023-08-07T01:25:48;11.44;;;2.97;;
15516;SDS011;7860;52.030;5.572;2023-08-07T01:26:48;10.16;;;2.80;;
15516;SDS011;7860;52.030;5.572;2023-08-07T01:27:51;10.12;;;2.96;;
15516;SDS011;7860;52.030;5.572;2023-08-07T01:29:31;10.16;;;2.70;;
15516;SDS011;7860;52.030;5.572;2023-08-07T01:30:32;10.55;;;2.89;;
15516;SDS011;7860;52.030;5.572;2023-08-07T01:31:30;11.14;;;2.76;;
15516;SDS011;7860;52.030;5.572;2023-08-07T01:32:32;10.40;;;2.77;;
15516;SDS011;7860;52.030;5.572;2023-08-07T01:33:31;11.06;;;2.80;;
15516;SDS011;7860;52.030;5.572;2023-08-07T01:34:30;12.77;;;3.25;;
15516;SDS011;7860;52.030;5.572;2023-08-07T01:35:32;11.57;;;2.95;;
15516;SDS011;7860;52.030;5.572;2023-08-07T01:36:30;10.97;;;2.92;;
15516;SDS011;7860;52.030;5.572;2023-08-07T01:37:31;13.08;;;3.05;;
15516;SDS011;7860;52.030;5.572;2023-08-07T01:38:31;11.26;;;3.07;;
15516;SDS011;7860;52.030;5.572;2023-08-07T01:39:31;13.30;;;2.92;;
15516;SDS011;7860;52.030;5.572;2023-08-07T01:40:32;11.43;;;3.05;;
15516;SDS011;7860;52.030;5.572;2023-08-07T01:41:32;10.93;;;3.12;;
15516;SDS011;7860;52.030;5.572;2023-08-07T01:42:32;13.93;;;3.06;;
15516;SDS011;7860;52.030;5.572;2023-08-07T01:43:32;11.62;;;3.11;;
15516;SDS011;7860;52.030;5.572;2023-08-07T01:44:32;13.09;;;2.92;;
15516;SDS011;7860;52.030;5.572;2023-08-07T01:45:32;12.66;;;2.95;;
15516;SDS011;7860;52.030;5.572;2023-08-07T01:46:32;14.69;;;3.21;;
15516;SDS011;7860;52.030;5.572;2023-08-07T01:47:32;13.47;;;3.13;;
15516;SDS011;7860;52.030;5.572;2023-08-07T01:48:32;11.57;;;2.88;;
15516;SDS011;7860;52.030;5.572;2023-08-07T01:49:32;15.39;;;2.85;;
15516;SDS011;7860;52.030;5.572;2023-08-07T01:50:32;13.22;;;2.99;;
15516;SDS011;7860;52.030;5.572;2023-08-07T01:51:32;10.63;;;2.63;;
15516;SDS011;7860;52.030;5.572;2023-08-07T01:52:32;13.15;;;3.00;;
15516;SDS011;7860;52.030;5.572;2023-08-07T01:53:32;12.87;;;3.03;;
15516;SDS011;7860;52.030;5.572;2023-08-07T01:54:33;9.44;;;2.75;;
15516;SDS011;7860;52.030;5.572;2023-08-07T01:55:33;10.72;;;2.94;;
15516;SDS011;7860;52.030;5.572;2023-08-07T01:56:33;12.56;;;3.07;;
15516;SDS011;7860;52.030;5.572;2023-08-07T01:57:33;10.80;;;3.06;;
15516;SDS011;7860;52.030;5.572;2023-08-07T01:58:33;10.11;;;3.03;;
15516;SDS011;7860;52.030;5.572;2023-08-07T01:59:33;9.35;;;3.29;;
15516;SDS011;7860;52.030;5.572;2023-08-07T02:00:34;10.38;;;2.81;;
15516;SDS011;7860;52.030;5.572;2023-08-07T02:01:35;14.48;;;2.87;;
15516;SDS011;7860;52.030;5.572;2023-08-07T02:02:35;11.89;;;3.04;;
15516;SDS011;7860;52.030;5.572;2023-08-07T02:03:35;11.30;;;3.38;;
15516;SDS011;7860;52.030;5.572;2023-08-07T02:04:35;15.30;;;2.88;;
15516;SDS011;7860;52.030;5.572;2023-08-07T02:05:35;10.08;;;2.60;;
15516;SDS011;7860;52.030;5.572;2023-08-07T02:06:36;13.46;;;3.47;;
15516;SDS011;7860;52.030;5.572;2023-08-07T02:08:29;11.98;;;3.03;;
15516;SDS011;7860;52.030;5.572;2023-08-07T02:09:29;14.27;;;2.89;;
15516;SDS011;7860;52.030;5.572;2023-08-07T02:10:29;11.59;;;2.68;;
15516;SDS011;7860;52.030;5.572;2023-08-07T02:11:29;12.79;;;2.86;;
15516;SDS011;7860;52.030;5.572;2023-08-07T02:12:30;10.52;;;2.71;;
15516;SDS011;7860;52.030;5.572;2023-08-07T02:13:30;9.15;;;2.52;;
15516;SDS011;7860;52.030;5.572;2023-08-07T02:14:30;12.26;;;2.90;;
15516;SDS011;7860;52.030;5.572;2023-08-07T02:15:30;10.39;;;2.86;;
15516;SDS011;7860;52.030;5.572;2023-08-07T02:16:30;8.75;;;2.49;;
15516;SDS011;7860;52.030;5.572;2023-08-07T02:17:30;13.16;;;2.65;;
15516;SDS011;7860;52.030;5.572;2023-08-07T02:18:31;9.19;;;2.58;;
15516;SDS011;7860;52.030;5.572;2023-08-07T02:19:31;13.34;;;2.84;;
15516;SDS011;7860;52.030;5.572;2023-08-07T02:20:31;7.93;;;2.47;;
15516;SDS011;7860;52.030;5.572;2023-08-07T02:21:32;8.94;;;2.38;;
15516;SDS011;7860;52.030;5.572;2023-08-07T02:22:32;11.34;;;2.69;;
15516;SDS011;7860;52.030;5.572;2023-08-07T02:23:32;12.80;;;2.62;;
15516;SDS011;7860;52.030;5.572;2023-08-07T02:24:33;11.05;;;2.51;;
15516;SDS011;7860;52.030;5.572;2023-08-07T02:25:33;8.41;;;2.69;;
15516;SDS011;7860;52.030;5.572;2023-08-07T02:26:33;12.19;;;2.78;;
15516;SDS011;7860;52.030;5.572;2023-08-07T02:27:33;9.05;;;2.47;;
15516;SDS011;7860;52.030;5.572;2023-08-07T02:28:33;12.39;;;2.84;;
15516;SDS011;7860;52.030;5.572;2023-08-07T02:29:33;14.12;;;3.12;;
15516;SDS011;7860;52.030;5.572;2023-08-07T02:30:33;11.79;;;2.72;;
15516;SDS011;7860;52.030;5.572;2023-08-07T02:31:33;10.86;;;2.77;;
15516;SDS011;7860;52.030;5.572;2023-08-07T02:32:33;8.50;;;2.38;;
15516;SDS011;7860;52.030;5.572;2023-08-07T02:33:33;9.76;;;2.48;;
15516;SDS011;7860;52.030;5.572;2023-08-07T02:34:33;11.83;;;2.63;;
15516;SDS011;7860;52.030;5.572;2023-08-07T02:35:33;12.03;;;2.61;;
15516;SDS011;7860;52.030;5.572;2023-08-07T02:36:34;11.03;;;2.74;;
15516;SDS011;7860;52.030;5.572;2023-08-07T02:37:34;10.15;;;2.33;;
15516;SDS011;7860;52.030;5.572;2023-08-07T02:38:34;9.25;;;2.59;;
15516;SDS011;7860;52.030;5.572;2023-08-07T02:39:34;11.80;;;2.83;;
15516;SDS011;7860;52.030;5.572;2023-08-07T02:40:34;10.82;;;2.63;;
15516;SDS011;7860;52.030;5.572;2023-08-07T02:41:34;11.46;;;2.49;;
15516;SDS011;7860;52.030;5.572;2023-08-07T02:42:35;11.58;;;2.81;;
15516;SDS011;7860;52.030;5.572;2023-08-07T02:43:35;10.13;;;2.51;;
15516;SDS011;7860;52.030;5.572;2023-08-07T02:44:36;9.71;;;2.40;;
15516;SDS011;7860;52.030;5.572;2023-08-07T02:45:36;12.24;;;2.70;;
15516;SDS011;7860;52.030;5.572;2023-08-07T02:46:36;9.93;;;2.52;;
15516;SDS011;7860;52.030;5.572;2023-08-07T02:47:36;11.32;;;2.66;;
15516;SDS011;7860;52.030;5.572;2023-08-07T02:48:36;9.38;;;2.55;;
15516;SDS011;7860;52.030;5.572;2023-08-07T02:49:36;9.89;;;2.51;;
15516;SDS011;7860;52.030;5.572;2023-08-07T02:50:37;10.55;;;2.86;;
15516;SDS011;7860;52.030;5.572;2023-08-07T02:51:37;9.17;;;2.47;;
15516;SDS011;7860;52.030;5.572;2023-08-07T02:52:37;8.24;;;2.21;;
15516;SDS011;7860;52.030;5.572;2023-08-07T02:53:37;10.97;;;2.40;;
15516;SDS011;7860;52.030;5.572;2023-08-07T02:54:37;10.49;;;2.36;;
15516;SDS011;7860;52.030;5.572;2023-08-07T02:55:37;8.82;;;2.50;;
15516;SDS011;7860;52.030;5.572;2023-08-07T02:56:37;10.02;;;2.77;;
15516;SDS011;7860;52.030;5.572;2023-08-07T02:57:37;9.84;;;2.58;;
15516;SDS011;7860;52.030;5.572;2023-08-07T02:58:37;9.29;;;2.28;;
15516;SDS011;7860;52.030;5.572;2023-08-07T02:59:37;11.39;;;2.94;;
15516;SDS011;7860;52.030;5.572;2023-08-07T03:00:38;11.47;;;2.67;;
15516;SDS011;7860;52.030;5.572;2023-08-07T03:01:38;10.25;;;2.46;;
15516;SDS011;7860;52.030;5.572;2023-08-07T03:02:38;12.05;;;2.82;;
15516;SDS011;7860;52.030;5.572;2023-08-07T03:03:39;9.61;;;2.36;;
15516;SDS011;7860;52.030;5.572;2023-08-07T03:04:39;10.06;;;2.48;;
15516;SDS011;7860;52.030;5.572;2023-08-07T03:05:47;12.04;;;2.75;;
15516;SDS011;7860;52.030;5.572;2023-08-07T03:06:39;10.85;;;2.76;;
15516;SDS011;7860;52.030;5.572;2023-08-07T03:07:39;11.45;;;2.75;;
15516;SDS011;7860;52.030;5.572;2023-08-07T03:08:39;11.84;;;2.63;;
15516;SDS011;7860;52.030;5.572;2023-08-07T03:09:39;9.58;;;2.46;;
15516;SDS011;7860;52.030;5.572;2023-08-07T03:10:39;13.17;;;2.89;;
15516;SDS011;7860;52.030;5.572;2023-08-07T03:11:39;11.31;;;2.75;;
15516;SDS011;7860;52.030;5.572;2023-08-07T03:12:39;10.72;;;2.57;;
15516;SDS011;7860;52.030;5.572;2023-08-07T03:13:40;11.10;;;2.48;;
15516;SDS011;7860;52.030;5.572;2023-08-07T03:14:40;13.05;;;2.62;;
15516;SDS011;7860;52.030;5.572;2023-08-07T03:15:40;10.76;;;2.65;;
15516;SDS011;7860;52.030;5.572;2023-08-07T03:16:40;13.99;;;2.77;;
15516;SDS011;7860;52.030;5.572;2023-08-07T03:17:40;13.05;;;2.95;;
15516;SDS011;7860;52.030;5.572;2023-08-07T03:18:40;13.53;;;2.89;;
15516;SDS011;7860;52.030;5.572;2023-08-07T03:19:41;9.69;;;2.72;;
15516;SDS011;7860;52.030;5.572;2023-08-07T03:20:40;12.60;;;3.06;;
15516;SDS011;7860;52.030;5.572;2023-08-07T03:21:41;9.76;;;2.81;;
15516;SDS011;7860;52.030;5.572;2023-08-07T03:22:41;9.78;;;2.59;;
15516;SDS011;7860;52.030;5.572;2023-08-07T03:23:41;10.47;;;2.92;;
15516;SDS011;7860;52.030;5.572;2023-08-07T03:24:41;10.88;;;2.89;;
15516;SDS011;7860;52.030;5.572;2023-08-07T03:25:41;11.56;;;2.72;;
15516;SDS011;7860;52.030;5.572;2023-08-07T03:26:41;12.55;;;2.72;;
15516;SDS011;7860;52.030;5.572;2023-08-07T03:27:42;12.63;;;3.15;;
15516;SDS011;7860;52.030;5.572;2023-08-07T03:28:42;10.73;;;2.90;;
15516;SDS011;7860;52.030;5.572;2023-08-07T03:29:42;9.91;;;2.64;;
15516;SDS011;7860;52.030;5.572;2023-08-07T03:30:42;11.83;;;2.92;;
15516;SDS011;7860;52.030;5.572;2023-08-07T03:31:42;10.69;;;2.85;;
15516;SDS011;7860;52.030;5.572;2023-08-07T03:32:42;14.49;;;2.90;;
15516;SDS011;7860;52.030;5.572;2023-08-07T03:33:42;16.40;;;3.20;;
15516;SDS011;7860;52.030;5.572;2023-08-07T03:34:42;11.39;;;3.13;;
15516;SDS011;7860;52.030;5.572;2023-08-07T03:35:45;8.70;;;2.58;;
15516;SDS011;7860;52.030;5.572;2023-08-07T03:36:44;12.42;;;2.79;;
15516;SDS011;7860;52.030;5.572;2023-08-07T03:37:43;9.42;;;2.66;;
15516;SDS011;7860;52.030;5.572;2023-08-07T03:38:43;8.96;;;2.67;;
15516;SDS011;7860;52.030;5.572;2023-08-07T03:39:43;12.88;;;2.51;;
15516;SDS011;7860;52.030;5.572;2023-08-07T03:40:43;8.61;;;2.45;;
15516;SDS011;7860;52.030;5.572;2023-08-07T03:41:43;9.14;;;2.41;;
15516;SDS011;7860;52.030;5.572;2023-08-07T03:42:43;11.03;;;2.34;;
15516;SDS011;7860;52.030;5.572;2023-08-07T03:43:43;9.94;;;2.37;;
15516;SDS011;7860;52.030;5.572;2023-08-07T03:44:44;9.35;;;2.41;;
15516;SDS011;7860;52.030;5.572;2023-08-07T03:45:44;7.70;;;2.60;;
15516;SDS011;7860;52.030;5.572;2023-08-07T03:46:44;7.81;;;2.19;;
15516;SDS011;7860;52.030;5.572;2023-08-07T03:47:44;7.60;;;2.35;;
15516;SDS011;7860;52.030;5.572;2023-08-07T03:48:44;8.78;;;2.24;;
15516;SDS011;7860;52.030;5.572;2023-08-07T03:49:44;8.55;;;2.39;;
15516;SDS011;7860;52.030;5.572;2023-08-07T03:50:44;8.89;;;2.22;;
15516;SDS011;7860;52.030;5.572;2023-08-07T03:51:44;9.30;;;2.79;;
15516;SDS011;7860;52.030;5.572;2023-08-07T03:52:44;9.77;;;2.39;;
15516;SDS011;7860;52.030;5.572;2023-08-07T03:53:45;10.94;;;2.52;;
15516;SDS011;7860;52.030;5.572;2023-08-07T03:54:45;10.30;;;2.50;;
15516;SDS011;7860;52.030;5.572;2023-08-07T03:55:48;8.17;;;2.50;;
15516;SDS011;7860;52.030;5.572;2023-08-07T03:56:45;7.67;;;2.33;;
15516;SDS011;7860;52.030;5.572;2023-08-07T03:57:45;8.39;;;2.39;;
15516;SDS011;7860;52.030;5.572;2023-08-07T03:58:45;7.23;;;2.36;;
15516;SDS011;7860;52.030;5.572;2023-08-07T03:59:45;7.61;;;2.36;;
15516;SDS011;7860;52.030;5.572;2023-08-07T04:00:45;7.77;;;2.30;;
15516;SDS011;7860;52.030;5.572;2023-08-07T04:01:45;7.72;;;2.23;;
15516;SDS011;7860;52.030;5.572;2023-08-07T04:02:45;9.81;;;2.45;;
15516;SDS011;7860;52.030;5.572;2023-08-07T04:03:46;10.26;;;2.45;;
15516;SDS011;7860;52.030;5.572;2023-08-07T04:04:45;9.02;;;2.33;;
15516;SDS011;7860;52.030;5.572;2023-08-07T04:05:46;10.75;;;2.43;;
15516;SDS011;7860;52.030;5.572;2023-08-07T04:06:46;6.19;;;2.10;;
15516;SDS011;7860;52.030;5.572;2023-08-07T04:07:46;6.87;;;2.34;;
15516;SDS011;7860;52.030;5.572;2023-08-07T04:08:46;8.60;;;2.41;;
15516;SDS011;7860;52.030;5.572;2023-08-07T04:09:46;8.49;;;2.39;;
15516;SDS011;7860;52.030;5.572;2023-08-07T04:10:56;9.54;;;2.39;;
15516;SDS011;7860;52.030;5.572;2023-08-07T04:11:46;6.70;;;2.11;;
15516;SDS011;7860;52.030;5.572;2023-08-07T04:12:46;6.95;;;2.36;;
15516;SDS011;7860;52.030;5.572;2023-08-07T04:13:46;8.29;;;2.33;;
15516;SDS011;7860;52.030;5.572;2023-08-07T04:14:46;7.88;;;2.34;;
15516;SDS011;7860;52.030;5.572;2023-08-07T04:15:46;9.24;;;2.43;;
15516;SDS011;7860;52.030;5.572;2023-08-07T04:16:46;9.04;;;2.66;;
15516;SDS011;7860;52.030;5.572;2023-08-07T04:17:46;8.55;;;2.43;;
15516;SDS011;7860;52.030;5.572;2023-08-07T04:18:46;9.03;;;2.59;;
15516;SDS011;7860;52.030;5.572;2023-08-07T04:19:46;9.08;;;2.28;;
15516;SDS011;7860;52.030;5.572;2023-08-07T04:20:48;10.88;;;2.85;;
15516;SDS011;7860;52.030;5.572;2023-08-07T04:21:46;10.26;;;2.70;;
15516;SDS011;7860;52.030;5.572;2023-08-07T04:22:47;7.70;;;2.63;;
15516;SDS011;7860;52.030;5.572;2023-08-07T04:23:47;9.79;;;2.58;;
15516;SDS011;7860;52.030;5.572;2023-08-07T04:24:47;9.78;;;2.33;;
15516;SDS011;7860;52.030;5.572;2023-08-07T04:25:47;11.76;;;2.57;;
15516;SDS011;7860;52.030;5.572;2023-08-07T04:26:47;10.13;;;2.78;;
15516;SDS011;7860;52.030;5.572;2023-08-07T04:27:47;8.61;;;2.55;;
15516;SDS011;7860;52.030;5.572;2023-08-07T04:28:47;8.59;;;2.65;;
15516;SDS011;7860;52.030;5.572;2023-08-07T04:29:48;11.17;;;2.90;;
15516;SDS011;7860;52.030;5.572;2023-08-07T04:30:48;9.96;;;2.53;;
15516;SDS011;7860;52.030;5.572;2023-08-07T04:31:48;11.33;;;2.83;;
15516;SDS011;7860;52.030;5.572;2023-08-07T04:32:48;9.71;;;2.68;;
15516;SDS011;7860;52.030;5.572;2023-08-07T04:33:48;10.12;;;2.67;;
15516;SDS011;7860;52.030;5.572;2023-08-07T04:34:48;10.18;;;2.97;;
15516;SDS011;7860;52.030;5.572;2023-08-07T04:35:49;10.10;;;2.71;;
15516;SDS011;7860;52.030;5.572;2023-08-07T04:36:49;9.89;;;2.88;;
15516;SDS011;7860;52.030;5.572;2023-08-07T04:37:49;11.68;;;2.95;;
15516;SDS011;7860;52.030;5.572;2023-08-07T04:38:49;10.23;;;2.83;;
15516;SDS011;7860;52.030;5.572;2023-08-07T04:39:49;10.32;;;2.71;;
15516;SDS011;7860;52.030;5.572;2023-08-07T04:40:50;10.56;;;3.15;;
15516;SDS011;7860;52.030;5.572;2023-08-07T04:41:50;10.99;;;2.67;;
15516;SDS011;7860;52.030;5.572;2023-08-07T04:42:51;9.82;;;2.57;;
15516;SDS011;7860;52.030;5.572;2023-08-07T04:43:51;9.81;;;2.72;;
15516;SDS011;7860;52.030;5.572;2023-08-07T04:44:51;11.51;;;2.86;;
15516;SDS011;7860;52.030;5.572;2023-08-07T04:45:51;9.43;;;2.77;;
15516;SDS011;7860;52.030;5.572;2023-08-07T04:46:51;9.18;;;3.05;;
15516;SDS011;7860;52.030;5.572;2023-08-07T04:47:52;11.05;;;2.60;;
15516;SDS011;7860;52.030;5.572;2023-08-07T04:48:52;11.86;;;3.00;;
15516;SDS011;7860;52.030;5.572;2023-08-07T04:49:52;9.61;;;3.04;;
15516;SDS011;7860;52.030;5.572;2023-08-07T04:50:52;10.72;;;2.81;;
15516;SDS011;7860;52.030;5.572;2023-08-07T04:51:52;13.14;;;3.07;;
15516;SDS011;7860;52.030;5.572;2023-08-07T04:52:52;11.88;;;2.92;;
15516;SDS011;7860;52.030;5.572;2023-08-07T04:53:52;16.90;;;2.81;;
15516;SDS011;7860;52.030;5.572;2023-08-07T04:54:52;10.58;;;2.72;;
15516;SDS011;7860;52.030;5.572;2023-08-07T04:55:52;8.92;;;2.88;;
15516;SDS011;7860;52.030;5.572;2023-08-07T04:56:52;8.90;;;2.80;;
15516;SDS011;7860;52.030;5.572;2023-08-07T04:57:52;12.19;;;3.01;;
15516;SDS011;7860;52.030;5.572;2023-08-07T04:58:53;9.47;;;3.00;;
15516;SDS011;7860;52.030;5.572;2023-08-07T04:59:53;11.72;;;2.91;;
15516;SDS011;7860;52.030;5.572;2023-08-07T05:00:54;12.36;;;2.73;;
15516;SDS011;7860;52.030;5.572;2023-08-07T05:01:54;11.82;;;3.35;;
15516;SDS011;7860;52.030;5.572;2023-08-07T05:02:54;13.41;;;3.22;;
15516;SDS011;7860;52.030;5.572;2023-08-07T05:03:54;11.52;;;2.85;;
15516;SDS011;7860;52.030;5.572;2023-08-07T05:04:54;10.55;;;2.98;;
15516;SDS011;7860;52.030;5.572;2023-08-07T05:05:57;10.61;;;2.86;;
15516;SDS011;7860;52.030;5.572;2023-08-07T05:06:54;10.25;;;2.71;;
15516;SDS011;7860;52.030;5.572;2023-08-07T05:07:54;11.12;;;2.91;;
15516;SDS011;7860;52.030;5.572;2023-08-07T05:08:54;11.97;;;2.98;;
15516;SDS011;7860;52.030;5.572;2023-08-07T05:09:54;12.74;;;3.05;;
15516;SDS011;7860;52.030;5.572;2023-08-07T05:10:54;13.35;;;3.34;;
15516;SDS011;7860;52.030;5.572;2023-08-07T05:11:54;11.25;;;3.06;;
15516;SDS011;7860;52.030;5.572;2023-08-07T05:12:54;10.80;;;3.00;;
15516;SDS011;7860;52.030;5.572;2023-08-07T05:13:54;13.22;;;3.21;;
15516;SDS011;7860;52.030;5.572;2023-08-07T05:14:54;11.53;;;3.12;;
15516;SDS011;7860;52.030;5.572;2023-08-07T05:15:54;13.13;;;2.99;;
15516;SDS011;7860;52.030;5.572;2023-08-07T05:16:54;13.72;;;3.49;;
15516;SDS011;7860;52.030;5.572;2023-08-07T05:17:54;11.87;;;3.13;;
15516;SDS011;7860;52.030;5.572;2023-08-07T05:18:54;10.56;;;3.08;;
15516;SDS011;7860;52.030;5.572;2023-08-07T05:19:54;12.09;;;3.13;;
15516;SDS011;7860;52.030;5.572;2023-08-07T05:20:55;11.37;;;2.94;;
15516;SDS011;7860;52.030;5.572;2023-08-07T05:21:55;11.76;;;3.21;;
15516;SDS011;7860;52.030;5.572;2023-08-07T05:22:55;12.66;;;3.22;;
15516;SDS011;7860;52.030;5.572;2023-08-07T05:23:55;12.80;;;2.94;;
15516;SDS011;7860;52.030;5.572;2023-08-07T05:24:55;15.32;;;3.02;;
15516;SDS011;7860;52.030;5.572;2023-08-07T05:25:55;11.15;;;2.92;;
15516;SDS011;7860;52.030;5.572;2023-08-07T05:26:55;12.09;;;2.98;;
15516;SDS011;7860;52.030;5.572;2023-08-07T05:27:55;11.46;;;3.02;;
15516;SDS011;7860;52.030;5.572;2023-08-07T05:28:55;11.76;;;2.90;;
15516;SDS011;7860;52.030;5.572;2023-08-07T05:29:55;9.88;;;2.77;;
15516;SDS011;7860;52.030;5.572;2023-08-07T05:30:55;11.55;;;3.04;;
15516;SDS011;7860;52.030;5.572;2023-08-07T05:31:55;11.11;;;2.91;;
15516;SDS011;7860;52.030;5.572;2023-08-07T05:32:55;11.76;;;3.25;;
15516;SDS011;7860;52.030;5.572;2023-08-07T05:33:55;11.42;;;3.10;;
15516;SDS011;7860;52.030;5.572;2023-08-07T05:34:55;12.06;;;3.05;;
15516;SDS011;7860;52.030;5.572;2023-08-07T05:35:56;11.17;;;3.05;;
15516;SDS011;7860;52.030;5.572;2023-08-07T05:36:56;9.58;;;3.16;;
15516;SDS011;7860;52.030;5.572;2023-08-07T05:37:56;9.36;;;2.98;;
15516;SDS011;7860;52.030;5.572;2023-08-07T05:38:57;14.29;;;2.87;;
15516;SDS011;7860;52.030;5.572;2023-08-07T05:39:57;10.56;;;2.99;;
15516;SDS011;7860;52.030;5.572;2023-08-07T05:40:57;9.25;;;2.67;;
15516;SDS011;7860;52.030;5.572;2023-08-07T05:41:57;9.36;;;2.63;;
15516;SDS011;7860;52.030;5.572;2023-08-07T05:42:57;7.15;;;2.60;;
15516;SDS011;7860;52.030;5.572;2023-08-07T05:43:57;12.92;;;3.05;;
15516;SDS011;7860;52.030;5.572;2023-08-07T05:44:57;9.07;;;2.60;;
15516;SDS011;7860;52.030;5.572;2023-08-07T05:45:57;8.89;;;2.43;;
15516;SDS011;7860;52.030;5.572;2023-08-07T05:46:57;8.41;;;2.56;;
15516;SDS011;7860;52.030;5.572;2023-08-07T05:47:57;8.46;;;2.52;;
15516;SDS011;7860;52.030;5.572;2023-08-07T05:48:57;11.24;;;2.65;;
15516;SDS011;7860;52.030;5.572;2023-08-07T05:49:57;9.24;;;2.73;;
15516;SDS011;7860;52.030;5.572;2023-08-07T05:50:57;7.36;;;2.51;;
15516;SDS011;7860;52.030;5.572;2023-08-07T05:51:57;12.05;;;2.73;;
15516;SDS011;7860;52.030;5.572;2023-08-07T05:52:57;7.69;;;2.48;;
15516;SDS011;7860;52.030;5.572;2023-08-07T05:53:57;8.56;;;2.51;;
15516;SDS011;7860;52.030;5.572;2023-08-07T05:54:58;10.00;;;2.58;;
15516;SDS011;7860;52.030;5.572;2023-08-07T05:55:58;7.63;;;2.68;;
15516;SDS011;7860;52.030;5.572;2023-08-07T05:56:59;11.36;;;2.80;;
15516;SDS011;7860;52.030;5.572;2023-08-07T05:57:59;10.63;;;2.71;;
15516;SDS011;7860;52.030;5.572;2023-08-07T05:58:59;10.11;;;2.79;;
15516;SDS011;7860;52.030;5.572;2023-08-07T05:59:59;9.04;;;2.58;;
15516;SDS011;7860;52.030;5.572;2023-08-07T06:00:59;9.87;;;2.63;;
15516;SDS011;7860;52.030;5.572;2023-08-07T06:01:59;9.91;;;2.56;;
15516;SDS011;7860;52.030;5.572;2023-08-07T06:02:59;9.23;;;2.50;;
15516;SDS011;7860;52.030;5.572;2023-08-07T06:03:59;9.22;;;2.75;;
15516;SDS011;7860;52.030;5.572;2023-08-07T06:04:59;9.01;;;2.83;;
15516;SDS011;7860;52.030;5.572;2023-08-07T06:05:59;10.18;;;2.91;;